createdAt,value
2018-12-21T00:00:37.924Z,97.60
2018-12-21T00:02:12.892Z,97.70
2018-12-21T00:03:47.865Z,97.20
2018-12-21T00:05:22.869Z,97.10
2018-12-21T00:06:57.932Z,97.10
2018-12-21T00:08:32.900Z,97.50
2018-12-21T00:10:08.012Z,97.30
2018-12-21T00:11:42.952Z,97.10
2018-12-21T00:13:17.976Z,96.90
2018-12-21T00:14:52.953Z,96.90
2018-12-21T00:16:27.932Z,97.00
2018-12-21T00:18:02.839Z,97.00
2018-12-21T00:19:37.869Z,97.10
2018-12-21T00:21:12.826Z,97.00
2018-12-21T00:22:47.748Z,96.90
2018-12-21T00:24:22.745Z,96.90
2018-12-21T00:25:57.723Z,96.90
2018-12-21T00:27:32.667Z,96.90
2018-12-21T00:29:07.631Z,96.70
2018-12-21T00:30:41.634Z,96.70
2018-12-21T00:32:21.710Z,96.70
2018-12-21T00:34:01.747Z,96.70
2018-12-21T00:35:41.884Z,96.70
2018-12-21T00:37:21.924Z,96.60
2018-12-21T00:39:02.059Z,96.70
2018-12-21T00:40:42.112Z,96.70
2018-12-21T00:43:26.366Z,96.90
2018-12-21T00:45:09.524Z,96.90
2018-12-21T00:46:49.316Z,96.50
2018-12-21T00:48:24.258Z,96.40
2018-12-21T00:49:59.257Z,96.30
2018-12-21T00:51:34.302Z,95.60
2018-12-21T00:53:09.249Z,95.20
2018-12-21T00:54:44.402Z,94.60
2018-12-21T00:56:19.340Z,93.40
2018-12-21T00:57:54.510Z,93.10
2018-12-21T00:59:30.540Z,92.40
2018-12-21T01:01:05.787Z,91.60
2018-12-21T01:02:41.082Z,91.50
2018-12-21T01:04:16.123Z,91.20
2018-12-21T01:05:51.332Z,91.00
2018-12-21T01:07:26.367Z,90.60
2018-12-21T01:09:01.302Z,90.30
2018-12-21T01:10:36.322Z,89.80
2018-12-21T01:12:11.563Z,90.00
2018-12-21T01:13:46.713Z,90.00
2018-12-21T01:15:21.655Z,89.40
2018-12-21T01:16:56.647Z,88.90
2018-12-21T01:18:31.595Z,89.30
2018-12-21T01:20:08.042Z,89.40
2018-12-21T01:21:43.006Z,88.90
2018-12-21T01:23:17.926Z,89.20
2018-12-21T01:24:52.868Z,88.70
2018-12-21T01:26:27.857Z,88.50
2018-12-21T01:28:02.759Z,88.90
2018-12-21T01:29:37.662Z,88.80
2018-12-21T01:31:12.667Z,88.60
2018-12-21T01:32:47.675Z,88.10
2018-12-21T01:34:22.611Z,88.10
2018-12-21T01:35:57.596Z,88.10
2018-12-21T01:37:32.596Z,88.00
2018-12-21T01:39:08.122Z,88.20
2018-12-21T01:40:43.071Z,88.30
2018-12-21T01:42:18.318Z,87.50
2018-12-21T01:43:53.286Z,87.60
2018-12-21T01:45:28.245Z,87.70
2018-12-21T01:47:03.191Z,87.60
2018-12-21T01:48:38.137Z,87.30
2018-12-21T01:50:13.256Z,88.00
2018-12-21T01:51:48.182Z,88.40
2018-12-21T01:53:23.127Z,89.20
2018-12-21T01:54:58.211Z,89.30
2018-12-21T01:56:33.151Z,89.80
2018-12-21T01:58:08.076Z,90.20
2018-12-21T01:59:43.007Z,90.30
2018-12-21T02:01:18.013Z,90.50
2018-12-21T02:02:52.970Z,90.60
2018-12-21T02:04:27.887Z,90.90
2018-12-21T02:06:02.928Z,91.00
2018-12-21T02:07:37.847Z,91.90
2018-12-21T02:09:12.951Z,91.80
2018-12-21T02:10:48.205Z,92.10
2018-12-21T02:12:23.180Z,91.90
2018-12-21T02:13:58.111Z,91.90
2018-12-21T02:15:33.021Z,91.90
2018-12-21T02:17:07.950Z,92.20
2018-12-21T02:18:43.236Z,92.10
2018-12-21T02:20:18.204Z,92.00
2018-12-21T02:21:55.968Z,92.60
2018-12-21T02:23:30.109Z,92.10
2018-12-21T02:25:05.263Z,91.60
2018-12-21T02:26:40.172Z,91.70
2018-12-21T02:28:15.120Z,90.90
2018-12-21T02:29:50.121Z,90.30
2018-12-21T02:31:25.029Z,89.50
2018-12-21T02:32:59.927Z,88.50
2018-12-21T02:34:34.848Z,87.80
2018-12-21T02:36:09.807Z,88.50
2018-12-21T02:37:44.730Z,87.70
2018-12-21T02:39:19.647Z,87.90
2018-12-21T02:40:54.666Z,87.50
2018-12-21T02:42:29.690Z,87.50
2018-12-21T02:44:15.735Z,87.10
2018-12-21T02:45:51.004Z,87.50
2018-12-21T02:47:25.979Z,87.70
2018-12-21T02:49:00.927Z,87.70
2018-12-21T02:50:35.870Z,87.60
2018-12-21T02:52:10.875Z,87.50
2018-12-21T02:53:45.822Z,87.40
2018-12-21T02:55:20.787Z,87.10
2018-12-21T02:56:55.716Z,87.90
2018-12-21T02:58:30.806Z,88.10
2018-12-21T03:00:07.791Z,89.20
2018-12-21T03:01:43.161Z,89.20
2018-12-21T03:03:18.237Z,89.90
2018-12-21T03:04:56.333Z,90.10
2018-12-21T03:06:31.380Z,90.20
2018-12-21T03:08:06.413Z,90.20
2018-12-21T03:09:50.491Z,90.10
2018-12-21T03:11:25.455Z,90.10
2018-12-21T03:13:00.537Z,90.00
2018-12-21T03:14:35.536Z,90.10
2018-12-21T03:16:10.565Z,90.00
2018-12-21T03:17:45.628Z,89.50
2018-12-21T03:19:20.674Z,89.30
2018-12-21T03:20:55.661Z,89.60
2018-12-21T03:22:30.678Z,90.10
2018-12-21T03:24:06.379Z,90.00
2018-12-21T03:25:41.385Z,89.80
2018-12-21T03:27:16.401Z,89.60
2018-12-21T03:28:51.400Z,89.60
2018-12-21T03:30:26.346Z,89.70
2018-12-21T03:32:01.425Z,89.70
2018-12-21T03:33:36.563Z,89.20
2018-12-21T03:35:11.621Z,89.40
2018-12-21T03:36:46.612Z,89.40
2018-12-21T03:38:21.692Z,89.70
2018-12-21T03:39:56.716Z,90.20
2018-12-21T03:41:31.675Z,90.40
2018-12-21T03:43:06.663Z,90.80
2018-12-21T03:44:42.210Z,90.90
2018-12-21T03:46:17.221Z,91.40
2018-12-21T03:47:52.252Z,91.70
2018-12-21T03:49:31.783Z,92.00
2018-12-21T03:51:06.917Z,92.50
2018-12-21T03:52:41.889Z,92.60
2018-12-21T03:54:16.875Z,92.80
2018-12-21T03:55:51.847Z,93.00
2018-12-21T03:57:26.862Z,93.20
2018-12-21T03:59:01.827Z,93.80
2018-12-21T04:00:36.786Z,94.00
2018-12-21T04:02:11.903Z,93.90
2018-12-21T04:03:46.908Z,94.20
2018-12-21T04:05:23.061Z,94.00
2018-12-21T04:06:58.040Z,94.20
2018-12-21T04:08:33.429Z,94.50
2018-12-21T04:10:08.687Z,94.60
2018-12-21T04:11:43.939Z,94.70
2018-12-21T04:13:18.880Z,94.80
2018-12-21T04:14:53.837Z,94.90
2018-12-21T04:16:36.418Z,95.20
2018-12-21T04:18:11.398Z,95.30
2018-12-21T04:19:46.362Z,95.40
2018-12-21T04:21:21.327Z,95.70
2018-12-21T04:22:57.797Z,95.40
2018-12-21T04:24:32.846Z,95.40
2018-12-21T04:26:08.191Z,95.50
2018-12-21T04:27:43.142Z,95.50
2018-12-21T04:29:18.115Z,95.50
2018-12-21T04:30:53.128Z,95.40
2018-12-21T04:32:28.081Z,95.50
2018-12-21T04:34:03.044Z,95.50
2018-12-21T04:35:38.021Z,95.60
2018-12-21T04:37:13.104Z,95.60
2018-12-21T04:38:48.073Z,95.60
2018-12-21T04:40:23.056Z,95.80
2018-12-21T04:41:58.064Z,95.70
2018-12-21T04:43:33.058Z,95.80
2018-12-21T04:45:08.329Z,95.90
2018-12-21T04:46:43.388Z,95.90
2018-12-21T04:48:18.351Z,96.00
2018-12-21T04:49:53.312Z,95.90
2018-12-21T04:51:28.230Z,96.10
2018-12-21T04:53:03.292Z,96.10
2018-12-21T04:54:38.286Z,96.20
2018-12-21T04:56:13.229Z,96.10
2018-12-21T04:57:48.207Z,96.10
2018-12-21T04:59:23.260Z,96.10
2018-12-21T05:00:58.285Z,96.10
2018-12-21T05:02:33.309Z,96.20
2018-12-21T05:04:08.349Z,96.10
2018-12-21T05:05:43.461Z,96.00
2018-12-21T05:07:18.502Z,95.90
2018-12-21T05:08:53.558Z,96.30
2018-12-21T05:10:28.557Z,95.90
2018-12-21T05:12:03.505Z,95.70
2018-12-21T05:13:38.540Z,95.80
2018-12-21T05:15:13.518Z,96.20
2018-12-21T05:16:48.720Z,95.80
2018-12-21T05:18:23.688Z,95.80
2018-12-21T05:19:58.748Z,95.80
2018-12-21T05:21:33.763Z,95.80
2018-12-21T05:23:13.791Z,95.80
2018-12-21T05:24:48.779Z,95.90
2018-12-21T05:26:23.937Z,96.00
2018-12-21T05:27:58.978Z,96.20
2018-12-21T05:29:33.926Z,95.90
2018-12-21T05:31:09.012Z,95.90
2018-12-21T05:32:44.017Z,96.00
2018-12-21T05:34:19.017Z,96.10
2018-12-21T05:35:54.007Z,96.40
2018-12-21T05:37:29.071Z,96.40
2018-12-21T05:39:04.947Z,96.50
2018-12-21T05:40:39.913Z,96.10
2018-12-21T05:42:14.931Z,96.10
2018-12-21T05:43:50.021Z,96.10
2018-12-21T05:45:29.519Z,96.10
2018-12-21T05:47:04.490Z,96.30
2018-12-21T05:48:39.483Z,96.30
2018-12-21T05:50:14.503Z,96.20
2018-12-21T05:51:51.330Z,96.30
2018-12-21T05:53:29.194Z,96.50
2018-12-21T05:55:04.295Z,96.60
2018-12-21T05:56:39.412Z,96.40
2018-12-21T05:58:14.426Z,96.50
2018-12-21T05:59:49.421Z,96.40
2018-12-21T06:01:24.397Z,96.40
2018-12-21T06:02:59.385Z,96.40
2018-12-21T06:04:34.436Z,96.30
2018-12-21T06:06:09.452Z,96.40
2018-12-21T06:07:44.412Z,96.40
2018-12-21T06:09:19.437Z,96.50
2018-12-21T06:10:54.548Z,96.60
2018-12-21T06:12:29.514Z,96.70
2018-12-21T06:14:04.572Z,96.40
2018-12-21T06:15:39.528Z,96.20
2018-12-21T06:17:14.535Z,96.60
2018-12-21T06:18:49.864Z,96.70
2018-12-21T06:20:24.857Z,96.60
2018-12-21T06:21:59.795Z,96.90
2018-12-21T06:23:34.860Z,97.30
2018-12-21T06:25:09.792Z,96.80
2018-12-21T06:26:44.776Z,97.00
2018-12-21T06:28:19.719Z,96.90
2018-12-21T06:29:54.731Z,97.40
2018-12-21T06:31:29.706Z,97.30
2018-12-21T06:33:04.687Z,97.30
2018-12-21T06:34:39.679Z,96.80
2018-12-21T06:36:14.731Z,96.80
2018-12-21T06:37:49.778Z,97.10
2018-12-21T06:39:24.787Z,97.10
2018-12-21T06:40:59.764Z,97.00
2018-12-21T06:42:34.808Z,96.90
2018-12-21T06:44:09.787Z,97.20
2018-12-21T06:45:44.843Z,97.80
2018-12-21T06:47:19.995Z,97.70
2018-12-21T06:48:55.094Z,97.40
2018-12-21T06:50:30.164Z,97.80
2018-12-21T06:52:05.133Z,97.40
2018-12-21T06:53:40.231Z,97.50
2018-12-21T06:55:15.371Z,97.40
2018-12-21T06:56:50.438Z,97.40
2018-12-21T06:58:25.502Z,97.50
2018-12-21T07:00:00.488Z,97.40
2018-12-21T07:01:35.455Z,97.30
2018-12-21T07:03:17.038Z,97.30
2018-12-21T07:04:47.427Z,97.30
2018-12-21T07:06:22.449Z,97.40
2018-12-21T07:07:57.418Z,97.40
2018-12-21T07:09:33.141Z,97.20
2018-12-21T07:13:13.632Z,97.00
2018-12-21T07:14:48.614Z,97.20
2018-12-21T07:16:23.588Z,96.80
2018-12-21T07:17:58.635Z,96.70
2018-12-21T07:19:33.710Z,96.70
2018-12-21T07:21:08.685Z,96.70
2018-12-21T07:22:43.651Z,96.70
2018-12-21T07:24:18.697Z,96.70
2018-12-21T07:25:53.699Z,96.70
2018-12-21T07:27:28.678Z,96.50
2018-12-21T07:29:03.668Z,96.50
2018-12-21T07:30:40.404Z,96.50
2018-12-21T07:32:15.523Z,96.40
2018-12-21T07:33:50.454Z,96.30
2018-12-21T07:35:25.407Z,96.20
2018-12-21T07:37:00.509Z,96.10
2018-12-21T07:38:35.469Z,96.00
2018-12-21T07:40:11.530Z,96.00
2018-12-21T07:41:46.483Z,96.00
2018-12-21T07:43:21.491Z,95.90
2018-12-21T07:44:56.479Z,96.00
2018-12-21T07:46:31.451Z,96.00
2018-12-21T07:48:06.464Z,96.10
2018-12-21T07:49:41.493Z,96.00
2018-12-21T07:51:16.789Z,96.00
2018-12-21T07:52:53.302Z,96.00
2018-12-21T07:54:28.593Z,95.80
2018-12-21T07:56:03.701Z,95.90
2018-12-21T07:57:38.724Z,95.90
2018-12-21T07:59:13.764Z,95.70
2018-12-21T08:00:48.919Z,95.70
2018-12-21T08:02:24.096Z,95.70
2018-12-21T08:03:59.281Z,95.70
2018-12-21T08:05:34.552Z,95.70
2018-12-21T08:07:13.144Z,95.60
2018-12-21T08:08:48.321Z,95.90
2018-12-21T08:10:23.521Z,95.40
2018-12-21T08:11:58.851Z,95.50
2018-12-21T08:13:33.921Z,95.50
2018-12-21T08:15:09.167Z,95.40
2018-12-21T08:16:44.151Z,95.20
2018-12-21T08:18:19.606Z,95.10
2018-12-21T08:19:54.617Z,94.80
2018-12-21T08:21:29.592Z,94.40
2018-12-21T08:23:04.666Z,94.50
2018-12-21T08:24:39.755Z,94.40
2018-12-21T08:26:14.713Z,93.90
2018-12-21T08:27:49.700Z,93.40
2018-12-21T08:29:24.687Z,92.90
2018-12-21T08:30:59.732Z,92.50
2018-12-21T08:32:34.770Z,92.60
2018-12-21T08:34:09.716Z,92.50
2018-12-21T08:35:44.680Z,92.00
2018-12-21T08:37:21.317Z,92.50
2018-12-21T08:38:56.315Z,92.00
2018-12-21T08:40:31.266Z,91.60
2018-12-21T08:42:06.311Z,91.60
2018-12-21T08:43:41.396Z,91.60
2018-12-21T08:45:16.367Z,91.40
2018-12-21T08:46:51.422Z,91.40
2018-12-21T08:48:26.463Z,91.10
2018-12-21T08:50:01.472Z,90.80
2018-12-21T08:51:36.493Z,90.80
2018-12-21T08:53:11.458Z,90.70
2018-12-21T08:54:46.485Z,90.80
2018-12-21T08:56:21.519Z,90.30
2018-12-21T08:57:56.471Z,90.00
2018-12-21T08:59:31.451Z,89.50
2018-12-21T09:01:06.574Z,89.20
2018-12-21T09:02:41.550Z,89.10
2018-12-21T09:04:16.519Z,88.80
2018-12-21T09:05:52.246Z,88.20
2018-12-21T09:07:27.340Z,88.40
2018-12-21T09:09:02.345Z,88.40
2018-12-21T09:10:37.316Z,88.50
2018-12-21T09:12:12.337Z,89.10
2018-12-21T09:13:47.379Z,89.40
2018-12-21T09:15:23.445Z,89.70
2018-12-21T16:42:07.788Z,91.60
2018-12-21T16:43:42.837Z,91.40
2018-12-21T16:45:18.005Z,91.50
2018-12-21T16:46:53.174Z,91.40
2018-12-21T16:48:29.506Z,91.20
2018-12-21T16:50:05.182Z,91.90
2018-12-21T16:51:40.699Z,92.30
2018-12-21T16:53:15.791Z,92.50
2018-12-21T16:54:50.827Z,90.50
2018-12-21T16:56:26.057Z,90.50
2018-12-21T16:58:01.513Z,90.40
2018-12-21T16:59:36.646Z,90.10
2018-12-21T17:01:12.401Z,91.00
2018-12-21T17:02:47.712Z,90.40
2018-12-21T17:04:22.916Z,90.70
2018-12-21T17:05:58.591Z,90.90
2018-12-21T17:07:33.770Z,91.00
2018-12-21T17:09:10.189Z,91.40
2018-12-21T17:10:46.306Z,90.60
2018-12-21T17:12:21.761Z,90.70
2018-12-21T17:13:56.956Z,90.60
2018-12-21T17:15:32.236Z,90.70
2018-12-21T17:17:07.645Z,91.60
2018-12-21T17:18:43.329Z,91.60
2018-12-21T17:20:18.469Z,91.90
2018-12-21T17:21:53.639Z,91.20
2018-12-21T17:23:28.787Z,91.10
2018-12-21T17:25:04.008Z,91.00
2018-12-21T17:26:39.224Z,91.10
2018-12-21T17:28:14.414Z,91.10
2018-12-21T17:29:49.726Z,91.10
2018-12-21T17:31:25.024Z,90.70
2018-12-21T17:33:00.265Z,90.90
2018-12-21T17:34:35.435Z,90.50
2018-12-21T17:36:10.895Z,90.10
2018-12-21T17:37:46.037Z,90.00
2018-12-21T17:39:21.239Z,89.30
2018-12-21T17:40:56.359Z,89.60
2018-12-21T17:42:31.936Z,88.60
2018-12-21T17:44:07.452Z,88.30
2018-12-21T17:45:42.579Z,88.00
2018-12-21T17:47:17.765Z,88.00
2018-12-21T17:48:53.062Z,87.70
2018-12-21T17:50:28.210Z,87.70
2018-12-21T17:52:04.704Z,87.40
2018-12-21T17:53:40.007Z,87.20
2018-12-21T17:55:15.463Z,87.20
2018-12-21T17:56:50.605Z,87.10
2018-12-21T17:58:26.322Z,87.60
2018-12-21T18:00:01.557Z,88.00
2018-12-21T18:01:38.855Z,87.00
2018-12-21T18:03:25.687Z,86.70
2018-12-21T18:05:03.047Z,86.70
2018-12-21T18:06:38.155Z,86.60
2018-12-21T18:08:13.462Z,86.70
2018-12-21T18:09:51.098Z,86.40
2018-12-21T18:11:26.196Z,86.40
2018-12-21T18:13:01.620Z,86.30
2018-12-21T18:14:36.994Z,85.90
2018-12-21T18:16:12.465Z,86.20
2018-12-21T18:17:49.177Z,86.00
2018-12-21T18:19:24.310Z,85.80
2018-12-21T18:20:59.417Z,85.70
2018-12-21T18:22:34.624Z,85.50
2018-12-21T18:24:09.748Z,85.90
2018-12-21T18:25:49.640Z,85.40
2018-12-21T18:27:25.664Z,85.70
2018-12-21T18:29:01.075Z,85.00
2018-12-21T18:30:44.479Z,85.30
2018-12-21T18:32:39.925Z,85.30
2018-12-21T18:34:21.328Z,85.10
2018-12-21T18:35:56.384Z,85.10
2018-12-21T18:37:31.447Z,85.00
2018-12-21T18:39:07.614Z,84.90
2018-12-21T18:40:42.757Z,84.60
2018-12-21T18:42:17.881Z,84.40
2018-12-21T18:43:53.089Z,84.10
2018-12-21T18:45:28.343Z,83.80
2018-12-21T18:47:03.597Z,83.80
2018-12-21T18:48:38.656Z,84.00
2018-12-21T18:50:14.145Z,84.20
2018-12-21T18:51:49.306Z,84.10
2018-12-21T18:53:24.446Z,84.30
2018-12-21T18:55:02.528Z,84.50
2018-12-21T18:57:16.214Z,84.50
2018-12-21T18:58:52.723Z,84.70
2018-12-21T19:00:27.846Z,84.70
2018-12-21T19:02:03.056Z,85.10
2018-12-21T19:03:40.716Z,84.80
2018-12-21T19:05:16.308Z,84.90
2018-12-21T19:06:51.779Z,84.60
2018-12-21T19:08:26.891Z,84.50
2018-12-21T19:10:04.009Z,84.10
2018-12-21T19:11:39.337Z,84.20
2018-12-21T19:13:14.804Z,84.40
2018-12-21T19:14:49.932Z,84.20
2018-12-21T19:16:25.062Z,84.40
2018-12-21T19:18:00.281Z,84.20
2018-12-21T19:19:35.464Z,85.00
2018-12-21T19:21:10.529Z,84.10
2018-12-21T19:22:45.712Z,83.70
2018-12-21T19:24:20.857Z,83.40
2018-12-21T19:25:56.209Z,83.40
2018-12-21T19:27:31.336Z,83.40
2018-12-21T19:29:06.859Z,83.40
2018-12-21T19:30:42.314Z,83.80
2018-12-21T19:32:17.682Z,84.00
2018-12-21T19:33:53.903Z,84.10
2018-12-21T19:35:30.055Z,84.20
2018-12-21T19:37:06.683Z,83.70
2018-12-21T19:38:41.976Z,83.60
2018-12-21T19:40:17.070Z,83.30
2018-12-21T19:41:52.426Z,83.10
2018-12-21T19:43:28.233Z,82.80
2018-12-21T19:45:03.770Z,82.70
2018-12-21T19:46:41.102Z,82.80
2018-12-21T19:48:16.166Z,82.80
2018-12-21T19:49:51.297Z,82.90
2018-12-21T19:51:26.389Z,82.70
2018-12-21T19:53:02.650Z,81.70
2018-12-21T19:54:37.933Z,82.50
2018-12-21T19:56:27.341Z,81.50
2018-12-21T19:58:02.506Z,81.30
2018-12-21T19:59:37.624Z,80.90
2018-12-21T20:01:12.745Z,80.90
2018-12-21T20:02:47.834Z,81.30
2018-12-21T20:04:23.011Z,81.40
2018-12-21T20:05:58.111Z,81.40
2018-12-21T20:07:33.238Z,81.50
2018-12-21T20:09:09.450Z,81.80
2018-12-21T20:10:44.711Z,81.60
2018-12-21T20:12:19.788Z,81.40
2018-12-21T20:13:55.113Z,81.40
2018-12-21T20:15:30.201Z,81.20
2018-12-21T20:17:05.385Z,80.50
2018-12-21T20:18:40.514Z,80.50
2018-12-21T20:20:15.617Z,79.90
2018-12-21T20:21:50.730Z,79.50
2018-12-21T20:23:25.915Z,79.40
2018-12-21T20:25:01.025Z,79.60
2018-12-21T20:26:36.893Z,79.20
2018-12-21T20:28:11.994Z,79.10
2018-12-21T20:29:47.574Z,78.90
2018-12-21T20:31:22.738Z,78.60
2018-12-21T20:32:58.814Z,79.00
2018-12-21T20:34:34.389Z,78.70
2018-12-21T20:36:09.611Z,77.50
2018-12-21T20:37:44.873Z,78.10
2018-12-21T20:39:26.623Z,77.80
2018-12-21T20:41:06.587Z,77.30
2018-12-21T20:42:41.770Z,77.10
2018-12-21T20:44:17.037Z,76.80
2018-12-21T20:45:52.178Z,76.90
2018-12-21T20:47:27.380Z,77.40
2018-12-21T20:49:02.513Z,77.20
2018-12-21T20:50:37.727Z,77.40
2018-12-21T20:52:12.893Z,77.20
2018-12-21T20:53:48.054Z,77.80
2018-12-21T20:55:23.334Z,78.20
2018-12-21T20:57:01.595Z,78.30
2018-12-21T20:58:51.474Z,78.30
2018-12-21T21:00:26.626Z,78.60
2018-12-21T21:02:01.755Z,78.60
2018-12-21T21:03:36.883Z,79.00
2018-12-21T21:05:12.012Z,79.10
2018-12-21T21:06:47.149Z,79.20
2018-12-21T21:08:22.223Z,79.20
2018-12-21T21:09:57.304Z,78.80
2018-12-21T21:11:32.470Z,78.30
2018-12-21T21:13:07.613Z,78.40
2018-12-21T21:14:42.852Z,78.80
2018-12-21T21:16:17.942Z,78.50
2018-12-21T21:17:53.014Z,78.50
2018-12-21T21:19:32.992Z,78.90
2018-12-21T21:21:08.181Z,78.90
2018-12-21T21:22:43.327Z,79.10
2018-12-21T21:24:18.420Z,79.30
2018-12-21T21:25:53.656Z,79.30
2018-12-21T21:27:30.472Z,79.40
2018-12-21T21:29:05.934Z,79.70
2018-12-21T21:30:42.262Z,79.80
2018-12-21T21:32:17.367Z,79.80
2018-12-21T21:33:52.508Z,77.80
2018-12-21T21:35:27.669Z,78.20
2018-12-21T21:37:02.761Z,77.10
2018-12-21T21:38:37.864Z,78.40
2018-12-21T21:40:17.794Z,79.70
2018-12-21T21:41:52.912Z,81.40
2018-12-21T21:43:28.016Z,82.50
2018-12-21T21:45:03.080Z,83.40
2018-12-21T21:46:38.350Z,83.70
2018-12-21T21:48:13.451Z,83.90
2018-12-21T21:49:48.620Z,84.40
2018-12-21T21:51:23.748Z,84.70
2018-12-21T21:52:59.003Z,85.00
2018-12-21T21:54:34.115Z,85.30
2018-12-21T21:56:09.242Z,85.90
2018-12-21T21:57:44.329Z,86.10
2018-12-21T21:59:19.503Z,86.60
2018-12-21T22:00:54.550Z,87.10
2018-12-21T22:02:29.610Z,87.30
2018-12-21T22:04:04.728Z,87.90
2018-12-21T22:05:39.919Z,88.20
2018-12-21T22:07:14.956Z,88.10
2018-12-21T22:08:50.062Z,87.40
2018-12-21T22:10:25.163Z,87.40
2018-12-21T22:12:00.292Z,87.10
2018-12-21T22:13:35.393Z,86.30
2018-12-21T22:15:11.925Z,85.30
2018-12-21T22:16:47.023Z,85.00
2018-12-21T22:18:22.114Z,84.70
2018-12-21T22:19:57.199Z,84.60
2018-12-21T22:21:32.288Z,83.80
2018-12-21T22:23:07.353Z,83.50
2018-12-21T22:24:42.534Z,82.60
2018-12-21T22:26:17.682Z,81.50
2018-12-21T22:27:52.839Z,81.10
2018-12-21T22:29:27.859Z,80.80
2018-12-21T22:31:04.650Z,80.40
2018-12-21T22:32:39.750Z,80.30
2018-12-21T22:34:14.971Z,79.60
2018-12-21T22:35:51.198Z,79.40
2018-12-21T22:37:26.256Z,79.60
2018-12-21T22:39:03.798Z,79.10
2018-12-21T22:40:38.869Z,79.40
2018-12-21T22:42:13.963Z,79.80
2018-12-21T22:43:49.049Z,80.20
2018-12-21T22:45:25.122Z,80.60
2018-12-21T22:47:00.281Z,80.80
2018-12-21T22:48:35.331Z,81.30
2018-12-21T22:50:10.801Z,81.70
2018-12-21T22:51:46.616Z,82.20
2018-12-21T22:53:21.746Z,82.50
2018-12-21T22:54:56.795Z,83.10
2018-12-21T22:56:32.125Z,83.40
2018-12-21T22:58:07.271Z,83.90
2018-12-21T22:59:42.434Z,84.40
2018-12-21T23:01:18.027Z,84.70
2018-12-21T23:02:53.341Z,84.70
2018-12-21T23:04:28.753Z,84.90
2018-12-21T23:06:03.936Z,84.70
2018-12-21T23:07:39.189Z,84.60
2018-12-21T23:09:14.306Z,84.60
2018-12-21T23:10:49.320Z,84.40
2018-12-21T23:12:25.894Z,84.40
2018-12-21T23:14:00.993Z,84.60
2018-12-21T23:15:36.471Z,84.40
2018-12-21T23:17:11.556Z,84.40
2018-12-21T23:18:46.946Z,84.30
2018-12-21T23:20:22.000Z,84.30
2018-12-21T23:21:57.069Z,84.00
2018-12-21T23:23:32.250Z,84.00
2018-12-21T23:25:07.913Z,83.80
2018-12-21T23:26:42.973Z,83.60
2018-12-21T23:28:18.100Z,83.40
2018-12-21T23:29:53.222Z,82.70
2018-12-21T23:31:28.454Z,82.60
2018-12-21T23:33:05.842Z,82.50
2018-12-21T23:34:40.825Z,81.70
2018-12-21T23:36:16.083Z,81.80
2018-12-21T23:37:51.192Z,81.60
2018-12-21T23:39:26.388Z,80.70
2018-12-21T23:41:01.516Z,80.40
2018-12-21T23:42:36.597Z,80.40
2018-12-21T23:44:11.837Z,80.50
2018-12-21T23:45:46.881Z,80.00
2018-12-21T23:47:21.945Z,80.20
2018-12-21T23:48:57.120Z,80.20
2018-12-21T23:50:32.393Z,80.20
2018-12-21T23:52:07.515Z,79.90
2018-12-21T23:53:42.688Z,80.00
2018-12-21T23:55:17.803Z,80.20
2018-12-21T23:56:52.947Z,80.00
2018-12-21T23:58:28.011Z,80.40
